Time;durP1;ratioP1;P1;durP2;ratioP2;P2;SDS_P1;SDS_P2;PMS_P1;PMS_P2;Temp;Humidity;BMP_temperature;BMP_pressure;BME280_temperature;BME280_humidity;BME280_pressure;Samples;Min_cycle;Max_cycle;Signal;HPM_P1;HPM_P2
2024/03/25 00:02:25;;;;;;;18.30;10.60;;;;;;;5.09;99.14;99161.42;106076;1264;99333;-78
2024/03/25 00:05:11;;;;;;;18.10;11.70;;;;;;;5.08;99.24;99164.20;106113;1251;99477;-78
2024/03/25 00:07:58;;;;;;;20.40;11.60;;;;;;;5.08;99.29;99161.45;105985;1251;98652;-77
2024/03/25 00:10:43;;;;;;;14.80;11.80;;;;;;;5.07;99.34;99158.21;106067;1254;99438;-79
2024/03/25 00:13:29;;;;;;;20.00;11.90;;;;;;;5.04;99.53;99155.64;106106;1255;101350;-77
2024/03/25 00:16:14;;;;;;;20.20;11.30;;;;;;;5.03;99.53;99159.02;106126;1251;99119;-79
2024/03/25 00:19:00;;;;;;;18.30;9.50;;;;;;;5.01;99.55;99156.92;106298;1252;98986;-80
2024/03/25 00:21:45;;;;;;;16.70;11.10;;;;;;;5.01;99.64;99157.13;106342;1255;98496;-79
2024/03/25 00:24:31;;;;;;;17.20;10.50;;;;;;;5.01;99.70;99157.52;106305;1251;99236;-79
2024/03/25 00:27:18;;;;;;;15.90;10.40;;;;;;;5.00;99.81;99158.43;107076;1249;101906;-79
2024/03/25 00:30:04;;;;;;;16.00;10.70;;;;;;;5.02;99.82;99156.15;107103;1255;100326;-80
2024/03/25 00:32:50;;;;;;;18.70;11.40;;;;;;;5.03;99.90;99152.61;106714;1252;98412;-80
2024/03/25 00:35:36;;;;;;;16.70;11.00;;;;;;;5.04;99.92;99156.67;106119;1250;98070;-77
2024/03/25 00:38:21;;;;;;;17.90;11.70;;;;;;;5.06;100.00;99153.52;105996;1252;98518;-79
2024/03/25 00:41:07;;;;;;;17.90;12.00;;;;;;;5.06;100.00;99150.86;106082;1253;102731;-78
2024/03/25 00:43:52;;;;;;;19.90;11.70;;;;;;;5.04;100.00;99150.34;106062;1255;100934;-79
2024/03/25 00:46:38;;;;;;;19.40;11.90;;;;;;;5.04;100.00;99147.37;106240;1252;99497;-78
2024/03/25 00:49:23;;;;;;;17.50;11.10;;;;;;;5.04;100.00;99145.44;106027;1250;98819;-79
2024/03/25 00:52:08;;;;;;;18.30;10.90;;;;;;;5.04;100.00;99142.19;106124;1250;97963;-79
2024/03/25 00:54:54;;;;;;;17.10;11.60;;;;;;;5.05;100.00;99137.30;106090;1253;101337;-79
2024/03/25 00:57:40;;;;;;;18.90;11.80;;;;;;;5.05;100.00;99137.34;106051;1250;99125;-79
2024/03/25 01:00:25;;;;;;;17.90;11.80;;;;;;;5.04;100.00;99135.85;105912;1251;98917;-79
2024/03/25 01:03:11;;;;;;;21.20;12.00;;;;;;;5.04;100.00;99131.56;105994;1251;98099;-77
2024/03/25 01:05:57;;;;;;;19.30;12.60;;;;;;;5.03;100.00;99131.02;106212;1253;98937;-79
2024/03/25 01:08:42;;;;;;;21.00;12.70;;;;;;;5.02;100.00;99126.27;106189;1250;101327;-80
2024/03/25 01:11:28;;;;;;;19.90;11.60;;;;;;;5.01;100.00;99130.26;106157;1256;100568;-79
2024/03/25 01:14:13;;;;;;;17.50;12.40;;;;;;;5.01;100.00;99132.43;105947;1254;97949;-79
2024/03/25 01:16:58;;;;;;;20.40;12.60;;;;;;;4.99;100.00;99128.49;106008;1256;98065;-78
2024/03/25 01:19:44;;;;;;;19.20;12.70;;;;;;;4.99;100.00;99129.59;106127;1254;97981;-79
2024/03/25 01:22:31;;;;;;;20.70;12.00;;;;;;;4.98;100.00;99128.56;106097;1254;102605;-77
2024/03/25 01:25:16;;;;;;;22.10;13.30;;;;;;;4.97;100.00;99125.64;106070;1256;99065;-79
2024/03/25 01:28:02;;;;;;;22.40;13.00;;;;;;;4.96;100.00;99122.68;106273;1254;99668;-80
2024/03/25 01:30:47;;;;;;;20.70;12.50;;;;;;;4.94;100.00;99124.23;105983;1255;98709;-79
2024/03/25 01:33:34;;;;;;;21.40;13.20;;;;;;;4.92;100.00;99132.93;106052;1251;98521;-81
2024/03/25 01:36:20;;;;;;;22.10;12.60;;;;;;;4.91;100.00;99129.04;105908;1254;101332;-78
2024/03/25 01:39:05;;;;;;;20.10;12.20;;;;;;;4.90;100.00;99132.02;106050;1253;100128;-79
2024/03/25 01:41:51;;;;;;;17.10;12.00;;;;;;;4.88;100.00;99129.05;106038;1255;98420;-78
2024/03/25 01:44:37;;;;;;;21.30;13.00;;;;;;;4.86;100.00;99128.60;106080;1250;99120;-79
2024/03/25 01:47:22;;;;;;;22.30;14.00;;;;;;;4.81;100.00;99134.45;106193;1255;98452;-81
2024/03/25 01:50:08;;;;;;;20.90;14.40;;;;;;;4.76;100.00;99127.47;106802;1251;103148;-79
2024/03/25 01:52:54;;;;;;;22.90;13.00;;;;;;;4.72;100.00;99128.33;106076;1253;100317;-78
2024/03/25 01:55:41;;;;;;;20.20;12.40;;;;;;;4.68;100.00;99128.56;106026;1251;98018;-79
2024/03/25 01:58:28;;;;;;;23.60;14.60;;;;;;;4.67;100.00;99122.55;105894;1251;98676;-77
2024/03/25 02:01:14;;;;;;;23.20;12.90;;;;;;;4.66;100.00;99124.98;106020;1254;98410;-78
2024/03/25 02:04:00;;;;;;;20.90;12.50;;;;;;;4.65;99.99;99126.08;106040;1253;102594;-77
2024/03/25 02:06:47;;;;;;;19.50;12.50;;;;;;;4.65;99.98;99125.95;105908;1251;101383;-77
2024/03/25 02:09:33;;;;;;;19.90;12.50;;;;;;;4.64;99.98;99125.56;105974;1250;98968;-78
2024/03/25 02:12:19;;;;;;;23.20;13.10;;;;;;;4.62;99.86;99122.45;106962;1254;98059;-78
2024/03/25 02:15:08;;;;;;;24.40;13.50;;;;;;;4.59;99.92;99119.76;106014;1250;98455;-79
2024/03/25 02:17:53;;;;;;;24.50;12.60;;;;;;;4.58;99.79;99120.84;105868;1256;101357;-78
2024/03/25 02:20:38;;;;;;;19.20;12.30;;;;;;;4.56;99.76;99121.89;105846;1250;100371;-79
2024/03/25 02:23:24;;;;;;;21.20;12.90;;;;;;;4.55;99.62;99122.80;105974;1251;98036;-78
2024/03/25 02:26:10;;;;;;;24.70;13.70;;;;;;;4.52;99.65;99120.67;105888;1255;99231;-78
2024/03/25 02:28:55;;;;;;;21.30;13.90;;;;;;;4.50;99.70;99120.86;105941;1256;98412;-78
2024/03/25 02:31:41;;;;;;;21.30;13.40;;;;;;;4.48;99.69;99121.89;106616;1251;102084;-79
2024/03/25 02:34:26;;;;;;;23.30;12.30;;;;;;;4.46;99.77;99125.59;106094;1252;100411;-79
2024/03/25 02:37:12;;;;;;;18.80;11.80;;;;;;;4.44;99.77;99123.77;106032;1251;98598;-79
2024/03/25 02:40:00;;;;;;;19.50;12.80;;;;;;;4.41;99.71;99125.31;105998;1254;98824;-78
2024/03/25 02:42:46;;;;;;;22.20;13.20;;;;;;;4.40;99.87;99127.98;106296;1255;98068;-79
2024/03/25 02:45:32;;;;;;;25.30;14.10;;;;;;;4.40;99.92;99128.11;106062;1256;101330;-79
2024/03/25 02:48:17;;;;;;;22.40;13.20;;;;;;;4.41;99.88;99129.76;106129;1253;100557;-81
2024/03/25 02:51:03;;;;;;;20.60;12.60;;;;;;;4.39;99.91;99132.04;106029;1254;99069;-78
2024/03/25 02:53:48;;;;;;;20.10;12.50;;;;;;;4.35;100.00;99133.46;106185;1255;98515;-78
2024/03/25 02:56:35;;;;;;;21.50;12.50;;;;;;;4.33;100.00;99135.02;106239;1253;99158;-77
2024/03/25 02:59:21;;;;;;;21.70;12.90;;;;;;;4.33;100.00;99136.81;106019;1254;103067;-78
2024/03/25 03:02:06;;;;;;;22.80;12.80;;;;;;;4.33;100.00;99139.92;106101;1250;99236;-80
2024/03/25 03:04:52;;;;;;;21.80;12.80;;;;;;;4.34;100.00;99137.85;106090;1254;98977;-76
2024/03/25 03:07:37;;;;;;;22.50;12.90;;;;;;;4.37;100.00;99135.24;106038;1254;98133;-77
2024/03/25 03:10:23;;;;;;;23.40;13.90;;;;;;;4.38;100.00;99138.77;105943;1255;97891;-78
2024/03/25 03:13:10;;;;;;;23.80;13.70;;;;;;;4.39;100.00;99142.90;105959;1254;102675;-77
2024/03/25 03:15:55;;;;;;;19.80;13.10;;;;;;;4.40;100.00;99143.15;105995;1254;100183;-78
2024/03/25 03:18:41;;;;;;;21.90;12.10;;;;;;;4.39;100.00;99145.02;106595;1261;97963;-79
2024/03/25 03:21:28;;;;;;;22.70;12.70;;;;;;;4.40;100.00;99149.06;105591;1255;98421;-80
2024/03/25 03:24:13;;;;;;;22.50;13.90;;;;;;;4.40;100.00;99148.61;105966;1252;99119;-80
2024/03/25 03:26:59;;;;;;;25.70;14.10;;;;;;;4.42;100.00;99146.33;106537;1250;101328;-78
2024/03/25 03:29:44;;;;;;;21.60;13.00;;;;;;;4.44;100.00;99150.34;105972;1254;99827;-76
2024/03/25 03:32:30;;;;;;;19.90;13.20;;;;;;;4.45;100.00;99152.08;105800;1253;99037;-78
2024/03/25 03:35:15;;;;;;;19.00;12.10;;;;;;;4.46;100.00;99152.14;105898;1254;97995;-78
2024/03/25 03:38:02;;;;;;;21.70;12.50;;;;;;;4.46;100.00;99152.30;106063;1252;98445;-78
2024/03/25 03:41:02;;;;;;;18.70;12.10;;;;;;;4.46;100.00;99153.76;106065;1254;102539;-78
2024/03/25 03:43:47;;;;;;;19.10;12.50;;;;;;;4.46;100.00;99156.45;106066;1255;99133;-78
2024/03/25 03:46:33;;;;;;;23.20;13.30;;;;;;;4.46;100.00;99159.63;106081;1255;99932;-79
2024/03/25 03:49:18;;;;;;;18.60;11.90;;;;;;;4.46;100.00;99160.81;106098;1253;98294;-79
2024/03/25 03:52:04;;;;;;;18.80;12.50;;;;;;;4.46;100.00;99158.20;106031;1256;98383;-79
2024/03/25 03:54:49;;;;;;;18.80;12.90;;;;;;;4.44;100.00;99162.59;106064;1254;102226;-78
2024/03/25 03:57:35;;;;;;;18.80;12.30;;;;;;;4.45;100.00;99161.66;105990;1256;99148;-77
2024/03/25 04:00:20;;;;;;;18.90;11.50;;;;;;;4.45;100.00;99159.30;105985;1250;98995;-79
2024/03/25 04:03:09;;;;;;;17.60;11.20;;;;;;;4.46;100.00;99158.37;106058;1255;97953;-79
2024/03/25 04:05:55;;;;;;;18.10;11.10;;;;;;;4.46;100.00;99158.41;106124;1254;99244;-79
2024/03/25 04:08:41;;;;;;;18.20;10.40;;;;;;;4.46;100.00;99157.15;106085;1255;103781;-76
2024/03/25 04:11:26;;;;;;;16.10;10.10;;;;;;;4.46;100.00;99158.54;106013;1256;100524;-78
2024/03/25 04:14:13;;;;;;;20.90;11.50;;;;;;;4.45;100.00;99157.73;106116;1251;99046;-77
2024/03/25 04:16:59;;;;;;;15.00;10.70;;;;;;;4.45;100.00;99158.27;105932;1253;98047;-78
2024/03/25 04:19:45;;;;;;;16.90;11.30;;;;;;;4.45;100.00;99160.06;105999;1256;97764;-78
2024/03/25 04:22:31;;;;;;;17.40;11.50;;;;;;;4.45;100.00;99158.46;106004;1254;102511;-77
2024/03/25 04:25:17;;;;;;;19.00;11.10;;;;;;;4.45;100.00;99158.48;106114;1256;100382;-77
2024/03/25 04:28:04;;;;;;;18.30;10.90;;;;;;;4.45;100.00;99165.34;105979;1262;98984;-79
2024/03/25 04:30:53;;;;;;;16.00;10.60;;;;;;;4.45;100.00;99167.28;106133;1255;98003;-79
2024/03/25 04:33:39;;;;;;;22.20;11.30;;;;;;;4.45;100.00;99169.45;106105;1250;98002;-81
2024/03/25 04:36:24;;;;;;;16.10;10.50;;;;;;;4.45;100.00;99171.40;106218;1264;101373;-79
2024/03/25 04:39:11;;;;;;;16.60;10.60;;;;;;;4.45;100.00;99175.20;105964;1256;99083;-77
2024/03/25 04:41:57;;;;;;;19.10;11.70;;;;;;;4.46;100.00;99175.59;106076;1256;97945;-80
2024/03/25 04:44:43;;;;;;;17.70;11.80;;;;;;;4.47;100.00;99176.77;106099;1253;99259;-79
2024/03/25 04:47:28;;;;;;;20.50;12.60;;;;;;;4.48;100.00;99180.06;106083;1252;97949;-77
2024/03/25 04:50:14;;;;;;;20.80;12.40;;;;;;;4.49;100.00;99178.85;106000;1252;102088;-77
2024/03/25 04:53:00;;;;;;;19.80;11.60;;;;;;;4.50;100.00;99179.83;106039;1256;99125;-79
2024/03/25 04:55:46;;;;;;;22.30;14.10;;;;;;;4.50;100.00;99178.67;106353;1253;98916;-78
2024/03/25 04:58:31;;;;;;;25.70;14.80;;;;;;;4.50;100.00;99173.90;105981;1255;97965;-78
2024/03/25 05:01:17;;;;;;;23.10;13.40;;;;;;;4.51;100.00;99173.86;105966;1256;98513;-77
2024/03/25 05:04:03;;;;;;;19.30;12.10;;;;;;;4.50;100.00;99173.15;106083;1251;103828;-78
2024/03/25 05:06:48;;;;;;;18.90;11.30;;;;;;;4.49;100.00;99176.31;106043;1256;99166;-77
2024/03/25 05:09:34;;;;;;;17.80;11.20;;;;;;;4.49;100.00;99180.77;105890;1250;98976;-78
2024/03/25 05:12:19;;;;;;;18.90;11.20;;;;;;;4.49;100.00;99184.92;105962;1251;97947;-77
2024/03/25 05:15:05;;;;;;;19.90;12.20;;;;;;;4.49;100.00;99189.30;106054;1255;98481;-80
2024/03/25 05:17:51;;;;;;;18.70;11.80;;;;;;;4.49;100.00;99188.96;105930;1255;101369;-77
2024/03/25 05:20:37;;;;;;;21.20;11.90;;;;;;;4.47;100.00;99188.90;105971;1256;99058;-78
2024/03/25 05:23:23;;;;;;;18.70;11.80;;;;;;;4.48;100.00;99190.42;106003;1253;99276;-80
2024/03/25 05:26:08;;;;;;;20.10;12.30;;;;;;;4.50;100.00;99195.34;105936;1256;97933;-77
2024/03/25 05:28:55;;;;;;;21.00;13.30;;;;;;;4.52;100.00;99194.91;105865;1266;97917;-77
2024/03/25 05:31:59;;;;;;;22.90;12.90;;;;;;;4.53;100.00;99197.05;105955;1256;101464;-77
2024/03/25 05:34:45;;;;;;;20.00;12.00;;;;;;;4.55;100.00;99198.41;105923;1251;99095;-78
2024/03/25 05:37:33;;;;;;;17.60;12.50;;;;;;;4.57;100.00;99203.33;106466;1251;98640;-78
2024/03/25 05:40:18;;;;;;;18.90;11.70;;;;;;;4.59;100.00;99197.97;105846;1255;99226;-78
2024/03/25 05:43:04;;;;;;;17.00;11.60;;;;;;;4.61;100.00;99198.71;106292;1256;97953;-78
2024/03/25 05:45:53;;;;;;;20.00;12.10;;;;;;;4.63;100.00;99201.98;106168;1256;101324;-79
2024/03/25 05:48:39;;;;;;;19.60;11.50;;;;;;;4.67;100.00;99200.92;106622;1253;100072;-79
2024/03/25 05:51:24;;;;;;;20.40;12.50;;;;;;;4.70;100.00;99201.25;106150;1254;97871;-77
2024/03/25 05:54:10;;;;;;;20.60;12.00;;;;;;;4.75;100.00;99201.20;106101;1253;97948;-78
2024/03/25 05:56:55;;;;;;;17.50;12.50;;;;;;;4.78;100.00;99204.05;106370;1254;97950;-79
2024/03/25 05:59:41;;;;;;;19.70;11.60;;;;;;;4.80;100.00;99206.75;106322;1253;101352;-78
2024/03/25 06:02:27;;;;;;;22.20;12.70;;;;;;;4.83;100.00;99213.31;106059;1254;99138;-78
2024/03/25 06:05:13;;;;;;;19.30;12.30;;;;;;;4.86;100.00;99216.84;106041;1253;98406;-78
2024/03/25 06:07:58;;;;;;;17.90;12.20;;;;;;;4.89;100.00;99218.24;106022;1266;97907;-78
2024/03/25 06:10:44;;;;;;;20.50;11.50;;;;;;;4.92;100.00;99223.15;106149;1253;98485;-81
2024/03/25 06:13:29;;;;;;;21.00;11.60;;;;;;;4.95;100.00;99223.59;106916;1255;102636;-80
2024/03/25 06:16:15;;;;;;;19.40;11.60;;;;;;;5.01;100.00;99224.92;106155;1256;99054;-78
2024/03/25 06:19:01;;;;;;;19.40;11.60;;;;;;;5.04;100.00;99226.04;106073;1250;99802;-78
2024/03/25 06:21:46;;;;;;;18.00;12.20;;;;;;;5.08;100.00;99227.16;106056;1256;98070;-79
2024/03/25 06:24:32;;;;;;;18.40;11.70;;;;;;;5.11;100.00;99229.64;106006;1263;98451;-78
2024/03/25 06:27:18;;;;;;;20.90;12.90;;;;;;;5.15;100.00;99230.42;106089;1251;102670;-77
2024/03/25 06:36:13;;;;;;;23.50;13.50;;;;;;;5.23;100.00;99240.56;106029;1254;97969;-80
2024/03/25 06:38:58;;;;;;;25.10;12.90;;;;;;;5.29;100.00;99238.56;106062;1253;97959;-78
2024/03/25 06:41:44;;;;;;;19.40;12.50;;;;;;;5.37;100.00;99244.34;105823;1259;103074;-79
2024/03/25 06:44:29;;;;;;;20.80;14.20;;;;;;;5.45;100.00;99251.70;105910;1251;99089;-78
2024/03/25 06:47:14;;;;;;;17.60;11.60;;;;;;;5.54;100.00;99250.81;106037;1264;99033;-78
2024/03/25 06:50:00;;;;;;;17.80;11.90;;;;;;;5.62;100.00;99254.22;106022;1256;97935;-78
2024/03/25 06:52:45;;;;;;;18.50;11.90;;;;;;;5.68;100.00;99251.63;106007;1256;98380;-77
2024/03/25 06:55:31;;;;;;;18.40;11.80;;;;;;;5.74;100.00;99250.55;105975;1253;101337;-77
2024/03/25 06:58:17;;;;;;;16.20;10.70;;;;;;;5.81;100.00;99248.55;106314;1254;99288;-81
2024/03/25 07:01:07;;;;;;;20.80;11.90;;;;;;;5.88;100.00;99248.77;106279;1253;99214;-78
2024/03/25 07:03:54;;;;;;;17.10;10.40;;;;;;;5.97;100.00;99250.04;105966;1257;97942;-78
2024/03/25 07:06:40;;;;;;;15.40;10.10;;;;;;;6.03;100.00;99252.39;106152;1251;98521;-77
2024/03/25 07:09:27;;;;;;;16.10;10.50;;;;;;;6.10;100.00;99253.48;106011;1254;101334;-77
2024/03/25 07:12:12;;;;;;;20.10;10.80;;;;;;;6.17;100.00;99250.05;106001;1253;99098;-78
2024/03/25 07:14:58;;;;;;;15.60;10.90;;;;;;;6.26;100.00;99254.67;106094;1253;99504;-78
2024/03/25 07:17:43;;;;;;;13.70;10.10;;;;;;;6.35;100.00;99249.88;105978;1255;97954;-77
2024/03/25 07:20:30;;;;;;;15.90;10.70;;;;;;;6.42;100.00;99252.80;105856;1251;98446;-76
2024/03/25 07:23:16;;;;;;;15.90;9.80;;;;;;;6.48;100.00;99258.42;105774;1255;103196;-78
2024/03/25 07:26:01;;;;;;;15.20;9.90;;;;;;;6.55;100.00;99256.80;106015;1253;99595;-79
2024/03/25 07:28:47;;;;;;;17.70;10.60;;;;;;;6.62;100.00;99258.08;106075;1256;99000;-80
2024/03/25 07:31:33;;;;;;;14.30;9.70;;;;;;;6.68;100.00;99259.75;106060;1253;97991;-77
2024/03/25 07:34:18;;;;;;;14.20;9.40;;;;;;;6.75;100.00;99261.38;106366;1253;98072;-83
2024/03/25 07:37:05;;;;;;;14.00;9.30;;;;;;;6.84;100.00;99259.36;106510;1253;101348;-80
2024/03/25 07:39:51;;;;;;;15.20;9.40;;;;;;;6.90;100.00;99257.73;106388;1251;99100;-82
2024/03/25 07:42:40;;;;;;;12.60;10.00;;;;;;;6.99;100.00;99261.01;106812;1251;97938;-80
2024/03/25 07:45:26;;;;;;;15.20;10.20;;;;;;;7.08;100.00;99259.54;106807;1256;97982;-81
2024/03/25 07:48:12;;;;;;;16.00;10.90;;;;;;;7.18;100.00;99259.31;107215;1251;98505;-80
2024/03/25 07:50:57;;;;;;;19.70;10.70;;;;;;;7.28;100.00;99260.00;106552;1251;101908;-80
2024/03/25 07:53:43;;;;;;;13.50;10.00;;;;;;;7.33;100.00;99264.46;106297;1253;100402;-82
2024/03/25 07:56:49;;;;;;;15.80;10.60;;;;;;;7.37;99.87;99269.11;106559;1254;98983;-81
2024/03/25 07:59:41;;;;;;;15.00;10.30;;;;;;;7.41;99.78;99271.27;106333;1256;97996;-83
2024/03/25 08:02:26;;;;;;;15.10;10.20;;;;;;;7.43;99.90;99275.77;106400;1257;98066;-81
2024/03/25 08:05:19;;;;;;;15.10;10.40;;;;;;;7.47;99.76;99280.91;106207;1257;101411;-80
2024/03/25 08:08:06;;;;;;;17.00;10.60;;;;;;;7.53;99.65;99281.15;106309;1258;100192;-81
2024/03/25 08:10:55;;;;;;;12.10;9.60;;;;;;;7.61;99.75;99282.11;106237;1257;97947;-81
2024/03/25 08:13:44;;;;;;;14.40;10.30;;;;;;;7.66;99.29;99279.77;106250;1260;98430;-80
2024/03/25 08:16:29;;;;;;;13.80;10.60;;;;;;;7.75;99.21;99280.61;105774;1258;96515;-80
2024/03/25 08:19:15;;;;;;;14.50;10.00;;;;;;;7.82;98.89;99279.52;106415;1259;101345;-82
2024/03/25 08:22:01;;;;;;;14.70;10.10;;;;;;;7.90;98.87;99278.30;106488;1254;100323;-81
2024/03/25 08:24:46;;;;;;;12.30;8.70;;;;;;;7.98;98.01;99277.77;106316;1254;97957;-80
2024/03/25 08:27:31;;;;;;;14.90;9.30;;;;;;;8.02;97.35;99280.23;106461;1254;98061;-81
2024/03/25 08:30:17;;;;;;;17.20;10.40;;;;;;;8.06;97.07;99282.98;106545;1260;98403;-81
2024/03/25 08:33:03;;;;;;;15.10;9.50;;;;;;;8.11;96.62;99284.02;105926;1254;101331;-80
2024/03/25 08:35:50;;;;;;;15.60;9.80;;;;;;;8.15;96.58;99283.40;106776;1259;100363;-82
2024/03/25 08:38:36;;;;;;;13.60;9.70;;;;;;;8.20;96.48;99284.52;106662;1254;97959;-80
2024/03/25 08:41:21;;;;;;;10.40;9.10;;;;;;;8.20;96.13;99287.60;106071;1258;98829;-79
2024/03/25 08:44:06;;;;;;;12.00;8.20;;;;;;;8.21;95.79;99294.70;106100;1254;98434;-78
2024/03/25 08:46:52;;;;;;;14.10;9.80;;;;;;;8.19;95.19;99294.62;105735;1255;101373;-78
2024/03/25 08:49:37;;;;;;;14.60;9.40;;;;;;;8.17;95.04;99295.45;105420;1257;99233;-77
2024/03/25 08:52:23;;;;;;;11.70;8.70;;;;;;;8.16;95.12;99293.75;105430;1254;97968;-78
2024/03/25 08:55:09;;;;;;;16.60;9.90;;;;;;;8.20;95.42;99295.77;105575;1261;97835;-78
2024/03/25 08:57:54;;;;;;;12.40;9.90;;;;;;;8.28;95.40;99295.91;105755;1257;99265;-78
2024/03/25 09:00:40;;;;;;;13.20;9.20;;;;;;;8.42;97.21;99295.57;105674;1261;101344;-78
2024/03/25 09:03:25;;;;;;;13.40;9.70;;;;;;;8.63;97.79;99296.65;105691;1260;99185;-77
2024/03/25 09:06:13;;;;;;;10.90;8.40;;;;;;;8.78;97.14;99295.56;105671;1257;99462;-77
2024/03/25 09:12:03;;;;;;;11.40;8.80;;;;;;;9.12;96.39;99301.84;105529;1270;99544;-77
2024/03/25 09:14:49;;;;;;;13.00;9.90;;;;;;;9.24;95.57;99300.09;105776;1254;102645;-78
2024/03/25 09:17:34;;;;;;;14.00;10.60;;;;;;;9.31;94.95;99301.60;105722;1260;100266;-78
2024/03/25 09:20:20;;;;;;;12.70;9.90;;;;;;;9.35;94.86;99302.49;105618;1254;97909;-77
2024/03/25 09:23:07;;;;;;;12.10;9.60;;;;;;;9.37;94.00;99302.86;105706;1254;98297;-78
2024/03/25 09:25:54;;;;;;;13.40;10.50;;;;;;;9.35;93.47;99300.93;105637;1254;98191;-78
2024/03/25 09:28:39;;;;;;;16.00;10.30;;;;;;;9.29;92.69;99301.44;105783;1254;102688;-78
2024/03/25 09:31:24;;;;;;;12.70;9.60;;;;;;;9.28;92.96;99304.29;106126;1257;100013;-79
2024/03/25 09:34:12;;;;;;;15.20;9.40;;;;;;;9.31;92.85;99304.56;106280;1254;98503;-79
2024/03/25 09:36:57;;;;;;;11.70;8.50;;;;;;;9.42;93.33;99301.69;106909;1253;153857;-77
2024/03/25 09:39:43;;;;;;;12.00;8.40;;;;;;;9.50;91.95;99301.90;105734;1257;98491;-78
2024/03/25 09:42:41;;;;;;;11.90;8.50;;;;;;;9.49;90.96;99305.07;105749;1254;101348;-78
2024/03/25 09:45:29;;;;;;;10.60;9.10;;;;;;;9.48;90.90;99305.78;105809;1257;100004;-76
2024/03/25 09:48:16;;;;;;;11.10;8.70;;;;;;;9.49;91.24;99306.77;106737;1257;98019;-77
2024/03/25 09:51:02;;;;;;;10.70;8.20;;;;;;;9.51;91.59;99310.04;105809;1257;97962;-77
2024/03/25 09:53:49;;;;;;;12.40;7.80;;;;;;;9.51;91.10;99312.02;105771;1257;98856;-78
2024/03/25 09:56:36;;;;;;;12.20;7.70;;;;;;;9.50;90.14;99317.90;105754;1254;101423;-77
2024/03/25 09:59:21;;;;;;;12.60;9.30;;;;;;;9.48;90.18;99321.04;105570;1257;100374;-78
2024/03/25 10:02:11;;;;;;;10.00;7.40;;;;;;;9.49;90.14;99317.14;105865;1256;97972;-77
2024/03/25 10:04:57;;;;;;;11.70;6.90;;;;;;;9.53;89.87;99317.89;105995;1253;97941;-78
2024/03/25 10:07:42;;;;;;;9.30;7.60;;;;;;;9.56;89.34;99319.08;106265;1257;97998;-78
2024/03/25 10:10:28;;;;;;;8.40;6.80;;;;;;;9.60;89.68;99318.40;106258;1254;102643;-78
2024/03/25 10:13:13;;;;;;;10.40;8.10;;;;;;;9.64;89.40;99322.63;106265;1271;99127;-79
2024/03/25 10:15:58;;;;;;;9.00;7.10;;;;;;;9.65;88.95;99323.11;106134;1253;99020;-78
2024/03/25 10:18:43;;;;;;;8.70;6.90;;;;;;;9.67;89.43;99326.55;106096;1257;97979;-78
2024/03/25 10:21:29;;;;;;;7.90;6.00;;;;;;;9.69;89.14;99323.50;105762;1254;97964;-80
2024/03/25 10:24:16;;;;;;;7.60;6.20;;;;;;;9.69;87.91;99324.86;106323;1257;101392;-79
2024/03/25 10:27:02;;;;;;;7.50;5.70;;;;;;;9.70;89.08;99322.52;106647;1257;99068;-78
2024/03/25 10:29:56;;;;;;;7.80;6.60;;;;;;;9.75;89.42;99325.91;105927;1257;98474;-77
2024/03/25 10:32:42;;;;;;;8.90;6.80;;;;;;;9.75;88.33;99326.27;105899;1254;97949;-77
2024/03/25 10:35:30;;;;;;;9.10;7.50;;;;;;;9.70;87.63;99325.02;105568;1257;98373;-78
2024/03/25 10:38:18;;;;;;;9.60;7.70;;;;;;;9.67;87.45;99324.46;106403;1254;103162;-77
2024/03/25 10:41:03;;;;;;;10.40;8.40;;;;;;;9.71;88.16;99325.92;105739;1257;100854;-76
2024/03/25 10:43:49;;;;;;;9.10;8.20;;;;;;;9.78;87.41;99326.98;105845;1252;99195;-78
2024/03/25 10:46:35;;;;;;;8.10;7.30;;;;;;;9.79;85.67;99328.74;106098;1251;99476;-78
2024/03/25 10:49:48;;;;;;;9.00;8.10;;;;;;;9.81;85.94;99329.67;106073;1257;98421;-77
2024/03/25 10:52:35;;;;;;;9.20;8.30;;;;;;;9.93;86.88;99326.77;105914;1253;102115;-79
2024/03/25 10:55:21;;;;;;;9.40;8.20;;;;;;;10.07;87.07;99330.30;106304;1260;99241;-79
2024/03/25 10:58:08;;;;;;;9.10;8.20;;;;;;;10.16;86.18;99328.33;106172;1258;99326;-80
2024/03/25 11:00:56;;;;;;;8.90;7.80;;;;;;;10.24;85.94;99328.11;106310;1256;98063;-79
2024/03/25 11:03:42;;;;;;;10.70;9.60;;;;;;;10.34;86.56;99328.34;106260;1251;97976;-79
2024/03/25 11:06:28;;;;;;;10.60;9.50;;;;;;;10.40;86.27;99332.45;106310;1256;103474;-80
2024/03/25 11:09:27;;;;;;;12.20;11.00;;;;;;;10.36;84.82;99331.21;106440;1254;99248;-79
2024/03/25 11:12:13;;;;;;;11.60;10.40;;;;;;;10.26;83.97;99334.08;106571;1253;98479;-79
2024/03/25 11:15:01;;;;;;;10.40;9.50;;;;;;;10.16;83.80;99337.55;106236;1257;98071;-79
2024/03/25 11:17:51;;;;;;;12.10;10.60;;;;;;;10.10;84.37;99340.43;106648;1257;98483;-78
2024/03/25 11:20:37;;;;;;;12.50;11.00;;;;;;;10.06;83.72;99338.39;105827;1256;102566;-77
2024/03/25 11:23:24;;;;;;;12.30;11.00;;;;;;;10.01;84.08;99337.72;105611;1257;99966;-77
2024/03/25 11:26:24;;;;;;;14.70;13.00;;;;;;;9.97;84.33;99338.69;105833;1255;97861;-77
2024/03/25 11:29:10;;;;;;;12.70;11.40;;;;;;;9.91;85.19;99342.42;105544;1251;99202;-78
2024/03/25 11:32:01;;;;;;;15.30;13.70;;;;;;;9.81;85.78;99350.05;105832;1253;97961;-78
2024/03/25 11:34:50;;;;;;;14.00;12.50;;;;;;;9.68;86.15;99350.79;106202;1257;101275;-78
2024/03/25 11:37:43;;;;;;;15.00;13.50;;;;;;;9.54;86.05;99351.89;106192;1257;99118;-79
2024/03/25 11:40:28;;;;;;;15.00;13.50;;;;;;;9.45;86.59;99356.20;105862;1256;97916;-77
2024/03/25 11:43:19;;;;;;;15.90;14.20;;;;;;;9.39;87.24;99354.73;105990;1254;97977;-80
2024/03/25 11:46:05;;;;;;;15.20;13.60;;;;;;;9.35;88.08;99353.05;106148;1253;98523;-78
2024/03/25 11:48:51;;;;;;;16.00;14.40;;;;;;;9.33;88.19;99348.98;106123;1253;101332;-77
2024/03/25 11:51:38;;;;;;;14.70;13.10;;;;;;;9.34;88.69;99349.19;105853;1251;99615;-78
2024/03/25 11:54:24;;;;;;;15.00;13.00;;;;;;;9.36;88.51;99349.06;105773;1253;98000;-79
2024/03/25 11:57:09;;;;;;;15.00;12.90;;;;;;;9.37;88.30;99346.92;106315;1253;97950;-78
2024/03/25 11:59:54;;;;;;;14.00;12.60;;;;;;;9.40;88.53;99347.25;106012;1256;98619;-79
2024/03/25 12:02:46;;;;;;;14.30;12.80;;;;;;;9.42;88.27;99345.48;105826;1257;101330;-77
2024/03/25 12:05:36;;;;;;;13.90;12.30;;;;;;;9.44;87.97;99346.01;105724;1253;98964;-78
2024/03/25 12:08:26;;;;;;;13.30;11.90;;;;;;;9.48;88.41;99345.79;106304;1257;99035;-78
2024/03/25 12:11:17;;;;;;;14.00;12.50;;;;;;;9.53;87.94;99343.42;106411;1253;97979;-79
2024/03/25 12:14:03;;;;;;;12.80;11.60;;;;;;;9.56;87.76;99343.91;106221;1256;97961;-78
2024/03/25 12:16:50;;;;;;;16.30;13.40;;;;;;;9.61;87.35;99341.81;106271;1257;102000;-79
2024/03/25 12:19:35;;;;;;;13.40;12.00;;;;;;;9.66;87.63;99340.34;106346;1253;99102;-78
2024/03/25 12:22:21;;;;;;;14.80;13.40;;;;;;;9.78;88.61;99344.37;106277;1253;98551;-78
2024/03/25 12:25:07;;;;;;;12.30;10.90;;;;;;;9.91;87.91;99338.22;105877;1253;97888;-77
2024/03/25 12:27:53;;;;;;;11.00;9.80;;;;;;;9.94;86.99;99339.40;105624;1251;99110;-77
2024/03/25 12:30:50;;;;;;;9.70;8.70;;;;;;;9.99;87.06;99342.72;105560;1253;101367;-77
2024/03/25 12:33:43;;;;;;;8.00;7.20;;;;;;;10.08;87.34;99348.14;106706;1251;99128;-78
2024/03/25 12:36:33;;;;;;;8.30;6.80;;;;;;;10.19;87.35;99350.13;105719;1258;97901;-78
2024/03/25 12:39:19;;;;;;;7.60;6.90;;;;;;;10.31;87.23;99346.60;105700;1254;97955;-78
2024/03/25 12:42:05;;;;;;;6.30;5.70;;;;;;;10.42;87.17;99341.84;105726;1253;99234;-77
2024/03/25 12:44:50;;;;;;;7.00;6.10;;;;;;;10.49;86.24;99341.34;106925;1255;102580;-78
2024/03/25 12:47:35;;;;;;;5.90;5.00;;;;;;;10.57;85.17;99343.55;105797;1251;100794;-77
2024/03/25 12:50:23;;;;;;;9.70;6.20;;;;;;;10.67;85.63;99345.36;105618;1257;99175;-77
2024/03/25 12:53:17;;;;;;;5.60;5.10;;;;;;;10.76;84.22;99346.73;105695;1256;98068;-78